Time;durP1;ratioP1;P1;durP2;ratioP2;P2;SDS_P1;SDS_P2;PMS_P1;PMS_P2;Temp;Humidity;BMP_temperature;BMP_pressure;BME280_temperature;BME280_humidity;BME280_pressure;Samples;Min_cycle;Max_cycle;Signal;HPM_P1;HPM_P2
2022/12/03 00:01:56;;;;;;;95.90;48.30;;;;;;;0.68;100.00;98092.94;107786;1266;69215;-68
2022/12/03 00:04:26;;;;;;;75.10;42.30;;;;;;;0.66;100.00;98090.08;107807;1259;69478;-68
2022/12/03 00:06:55;;;;;;;113.80;48.70;;;;;;;0.65;100.00;98090.61;107680;1262;58962;-68
2022/12/03 00:09:24;;;;;;;89.90;45.30;;;;;;;0.64;100.00;98094.73;107685;1262;58929;-68
2022/12/03 00:11:53;;;;;;;78.00;42.10;;;;;;;0.63;100.00;98100.75;107694;1266;70605;-68
2022/12/03 00:14:24;;;;;;;91.40;45.30;;;;;;;0.63;100.00;98106.75;107797;1266;69863;-68
2022/12/03 00:16:53;;;;;;;71.90;41.60;;;;;;;0.65;100.00;98114.29;107759;1266;69267;-68
2022/12/03 00:19:23;;;;;;;97.30;48.90;;;;;;;0.68;100.00;98121.06;107669;1262;58960;-68
2022/12/03 00:21:52;;;;;;;86.00;45.10;;;;;;;0.71;100.00;98120.31;107619;1266;58923;-68
2022/12/03 00:24:22;;;;;;;84.10;46.00;;;;;;;0.72;100.00;98121.16;107617;1262;71190;-68
2022/12/03 00:26:51;;;;;;;74.60;43.90;;;;;;;0.72;100.00;98121.15;107661;1266;69840;-68
2022/12/03 00:29:21;;;;;;;98.50;48.70;;;;;;;0.73;100.00;98121.65;107685;1262;69253;-68
2022/12/03 00:31:51;;;;;;;86.00;49.30;;;;;;;0.72;100.00;98120.46;107704;1263;58998;-68
2022/12/03 00:34:21;;;;;;;90.30;48.70;;;;;;;0.70;100.00;98121.02;107661;1266;59252;-68
2022/12/03 00:36:49;;;;;;;87.30;49.50;;;;;;;0.67;100.00;98122.61;107873;1266;71554;-68
2022/12/03 00:39:19;;;;;;;71.30;46.00;;;;;;;0.67;100.00;98126.94;107730;1262;70025;-68
2022/12/03 00:41:48;;;;;;;70.30;46.30;;;;;;;0.66;100.00;98132.61;107615;1266;68629;-68
2022/12/03 00:44:18;;;;;;;98.50;51.00;;;;;;;0.67;100.00;98133.96;107622;1262;59057;-68
2022/12/03 00:46:47;;;;;;;70.90;46.40;;;;;;;0.66;100.00;98138.61;107638;1266;58921;-68
2022/12/03 00:49:16;;;;;;;80.80;47.10;;;;;;;0.69;100.00;98140.95;107764;1266;69837;-68
2022/12/03 00:51:46;;;;;;;69.70;45.20;;;;;;;0.69;100.00;98138.04;107672;1262;68824;-69
2022/12/03 00:54:16;;;;;;;;;;;;;;;0.71;100.00;98141.08;107639;1266;69912;-68
2022/12/03 00:56:45;;;;;;;80.00;41.50;;;;;;;0.73;100.00;98141.88;107637;1266;59057;-68
2022/12/03 00:59:15;;;;;;;109.70;52.90;;;;;;;0.74;100.00;98140.50;107582;1266;58859;-68
2022/12/03 01:01:45;;;;;;;74.50;43.10;;;;;;;0.74;100.00;98143.09;107657;1262;70755;-68
2022/12/03 01:04:15;;;;;;;67.70;36.90;;;;;;;0.73;100.00;98147.71;107691;1262;69072;-68
2022/12/03 01:06:45;;;;;;;66.30;37.00;;;;;;;0.73;100.00;98150.30;107608;1262;68463;-68
2022/12/03 01:09:15;;;;;;;;;;;;;;;0.74;100.00;98150.45;107759;1266;58940;-69
2022/12/03 01:11:44;;;;;;;89.10;40.60;;;;;;;0.75;100.00;98149.92;107676;1266;58972;-69
2022/12/03 01:14:16;;;;;;;89.20;41.80;;;;;;;0.75;100.00;98150.95;107704;1262;69784;-69
2022/12/03 01:16:46;;;;;;;65.70;36.20;;;;;;;0.76;100.00;98155.05;107722;1266;69214;-68
2022/12/03 01:19:16;;;;;;;63.60;36.90;;;;;;;0.77;100.00;98151.58;107764;1262;68466;-68
2022/12/03 01:21:47;;;;;;;;;;;;;;;0.76;100.00;98155.05;107624;1266;58899;-69
2022/12/03 01:24:17;;;;;;;;;;;;;;;0.76;100.00;98158.98;107667;1259;58824;-69
2022/12/03 01:26:47;;;;;;;62.40;35.90;;;;;;;0.75;100.00;98158.50;107750;1266;69817;-69
2022/12/03 01:29:16;;;;;;;71.70;41.10;;;;;;;0.75;100.00;98159.52;107716;1262;68452;-69
2022/12/03 01:34:33;;;;;;;82.50;44.30;;;;;;;0.76;100.00;98157.08;107754;1262;58930;-69
2022/12/03 01:37:03;;;;;;;98.20;43.90;;;;;;;0.75;100.00;98153.02;107853;1262;58935;-68
2022/12/03 01:39:32;;;;;;;67.10;40.90;;;;;;;0.74;100.00;98154.06;107788;1263;70481;-68
2022/12/03 01:42:03;;;;;;;92.90;43.50;;;;;;;0.73;100.00;98151.15;107769;1257;69014;-68
2022/12/03 01:44:35;;;;;;;102.40;46.40;;;;;;;0.72;100.00;98151.19;107789;1262;68607;-68
2022/12/03 01:47:09;;;;;;;74.60;41.90;;;;;;;0.69;100.00;98149.71;107771;1266;58923;-69
2022/12/03 01:49:59;;;;;;;94.30;45.40;;;;;;;0.69;100.00;98147.98;107648;1266;58914;-69
2022/12/03 01:52:33;;;;;;;86.10;43.20;;;;;;;0.70;100.00;98148.31;107627;1262;69850;-68
2022/12/03 01:55:10;;;;;;;63.10;34.90;;;;;;;0.68;100.00;98149.90;107892;1266;68478;-68
2022/12/03 01:57:42;;;;;;;67.20;38.30;;;;;;;0.69;100.00;98147.81;107822;1263;69389;-68
2022/12/03 02:00:20;;;;;;;58.00;36.00;;;;;;;0.69;100.00;98148.33;107727;1266;59035;-68
2022/12/03 02:02:59;;;;;;;71.50;36.20;;;;;;;0.68;100.00;98146.98;107718;1262;58943;-68
2022/12/03 02:05:32;;;;;;;59.20;34.20;;;;;;;0.63;100.00;98145.19;107745;1262;69575;-68
2022/12/03 02:08:40;;;;;;;67.10;36.00;;;;;;;0.61;100.00;98147.46;107826;1266;68601;-67
2022/12/03 02:11:30;;;;;;;168.60;46.10;;;;;;;0.59;100.00;98148.20;107748;1266;69534;-67
2022/12/03 02:14:09;;;;;;;60.10;34.50;;;;;;;0.53;100.00;98146.61;107842;1262;58942;-67
2022/12/03 02:16:41;;;;;;;58.70;34.60;;;;;;;0.52;100.00;98144.58;107851;1266;58896;-67
2022/12/03 02:19:24;;;;;;;77.80;38.60;;;;;;;0.50;100.00;98144.94;107697;1266;70464;-67
2022/12/03 02:22:15;;;;;;;54.00;33.10;;;;;;;0.46;100.00;98147.10;107729;1266;69355;-67
2022/12/03 02:24:58;;;;;;;56.10;33.70;;;;;;;0.44;100.00;98148.34;107731;1262;69465;-67
2022/12/03 02:27:28;;;;;;;77.90;34.30;;;;;;;0.44;100.00;98146.80;107633;1263;58942;-67
2022/12/03 02:29:58;;;;;;;53.40;32.50;;;;;;;0.45;100.00;98147.98;107687;1262;58942;-67
2022/12/03 02:32:28;;;;;;;45.30;28.10;;;;;;;0.46;100.00;98149.32;107747;1262;71205;-67
2022/12/03 02:34:59;;;;;;;41.90;25.90;;;;;;;0.45;100.00;98151.39;107656;1266;67436;-67
2022/12/03 02:37:36;;;;;;;41.10;28.00;;;;;;;0.46;100.00;98151.72;107640;1265;69128;-69
2022/12/03 02:40:11;;;;;;;44.20;26.50;;;;;;;0.44;100.00;98154.17;107720;1266;58992;-68
2022/12/03 02:42:44;;;;;;;42.30;25.50;;;;;;;0.44;100.00;98150.20;107863;1266;58961;-68
2022/12/03 02:45:25;;;;;;;50.20;27.80;;;;;;;0.46;100.00;98150.02;108047;1262;70568;-68
2022/12/03 02:48:18;;;;;;;44.70;29.60;;;;;;;0.48;100.00;98151.00;107889;1266;67895;-68
2022/12/03 02:50:56;;;;;;;43.20;26.10;;;;;;;0.47;100.00;98157.19;107711;1267;69181;-69
2022/12/03 02:53:31;;;;;;;54.90;33.20;;;;;;;0.45;100.00;98157.23;107729;1265;58952;-68
2022/12/03 02:56:03;;;;;;;45.10;29.90;;;;;;;0.43;100.00;98160.89;107660;1262;58963;-68
2022/12/03 02:58:34;;;;;;;53.30;30.10;;;;;;;0.44;100.00;98156.91;107646;1266;70700;-68
2022/12/03 03:01:07;;;;;;;58.40;33.40;;;;;;;0.45;100.00;98157.05;107780;1262;68633;-68
2022/12/03 03:03:38;;;;;;;45.30;24.60;;;;;;;0.46;100.00;98159.78;107699;1262;69254;-67
2022/12/03 03:06:09;;;;;;;60.60;32.30;;;;;;;0.47;100.00;98154.98;107658;1266;58961;-67
2022/12/03 03:08:41;;;;;;;95.10;36.70;;;;;;;0.45;100.00;98158.61;107787;1266;58908;-67
2022/12/03 03:11:11;;;;;;;54.40;32.90;;;;;;;0.42;100.00;98157.30;107639;1262;71240;-68
2022/12/03 03:13:41;;;;;;;58.30;34.00;;;;;;;0.43;100.00;98157.11;107798;1262;69223;-68
2022/12/03 03:16:12;;;;;;;56.00;32.80;;;;;;;0.43;100.00;98155.23;107752;1266;69149;-68
2022/12/03 03:18:41;;;;;;;59.20;34.50;;;;;;;0.41;100.00;98157.64;107684;1266;58907;-68
2022/12/03 03:21:12;;;;;;;48.90;31.10;;;;;;;0.41;100.00;98159.88;107673;1266;58857;-68
2022/12/03 03:23:41;;;;;;;46.80;30.90;;;;;;;0.40;100.00;98158.71;107636;1262;70490;-68
2022/12/03 03:26:13;;;;;;;58.00;34.00;;;;;;;0.38;100.00;98156.34;107645;1266;69176;-68
2022/12/03 03:28:48;;;;;;;72.60;34.80;;;;;;;0.39;100.00;98159.59;107654;1266;69663;-68
2022/12/03 03:31:21;;;;;;;60.40;32.30;;;;;;;0.39;100.00;98162.69;107603;1263;59351;-68
2022/12/03 03:33:52;;;;;;;45.90;28.70;;;;;;;0.39;100.00;98166.61;107625;1266;58900;-67
2022/12/03 03:36:24;;;;;;;50.30;29.30;;;;;;;0.38;100.00;98166.13;107673;1266;71574;-67
2022/12/03 03:38:54;;;;;;;45.90;27.40;;;;;;;0.40;100.00;98163.52;107661;1259;68289;-68
2022/12/03 03:41:25;;;;;;;85.40;35.10;;;;;;;0.41;100.00;98167.25;107645;1266;68546;-68
2022/12/03 03:43:57;;;;;;;82.50;37.00;;;;;;;0.39;100.00;98173.29;107731;1266;58963;-68
2022/12/03 03:46:28;;;;;;;107.80;38.20;;;;;;;0.32;100.00;98174.98;107724;1264;58892;-68
2022/12/03 03:49:01;;;;;;;122.30;38.80;;;;;;;0.30;100.00;98174.67;107613;1262;70391;-68
2022/12/03 03:51:34;;;;;;;82.70;37.10;;;;;;;0.29;100.00;98178.31;107656;1263;69246;-68
2022/12/03 03:54:06;;;;;;;75.60;36.40;;;;;;;0.26;100.00;98178.52;107629;1266;68526;-68
2022/12/03 03:56:36;;;;;;;152.80;43.50;;;;;;;0.21;100.00;98178.11;107646;1262;58859;-69
2022/12/03 03:59:07;;;;;;;136.20;40.50;;;;;;;0.21;100.00;98175.02;107646;1266;58900;-68
2022/12/03 04:01:37;;;;;;;58.10;31.90;;;;;;;0.20;100.00;98175.21;107617;1266;69597;-68
2022/12/03 04:04:19;;;;;;;71.10;34.00;;;;;;;0.24;100.00;98173.59;107815;1263;68275;-68
2022/12/03 04:06:49;;;;;;;86.70;37.40;;;;;;;0.28;100.00;98174.39;107760;1266;69768;-68
2022/12/03 04:09:18;;;;;;;67.30;34.60;;;;;;;0.30;100.00;98177.45;107608;1266;59004;-68
2022/12/03 04:14:38;;;;;;;80.10;34.10;;;;;;;0.32;100.00;98182.54;107643;1262;69819;-67
2022/12/03 04:17:07;;;;;;;;;;;;;;;0.35;100.00;98180.92;107665;1262;68983;-68
2022/12/03 04:19:37;;;;;;;73.70;33.00;;;;;;;0.38;100.00;98184.98;107652;1263;70259;-68
2022/12/03 04:28:47;;;;;;;69.60;30.90;;;;;;;0.41;100.00;98183.20;107722;1266;58919;-68
2022/12/03 04:30:32;;;;;;;72.90;30.40;;;;;;;0.51;100.00;98190.06;107670;1262;69838;-68
2022/12/03 04:35:51;;;;;;;69.10;31.80;;;;;;;0.57;100.00;98188.40;107715;1266;58954;-68
2022/12/03 04:38:21;;;;;;;83.90;33.40;;;;;;;0.60;100.00;98189.00;107841;1262;58901;-69
2022/12/03 04:40:59;;;;;;;59.30;29.50;;;;;;;0.63;100.00;98192.03;107635;1266;70571;-68
2022/12/03 04:43:33;;;;;;;76.00;33.60;;;;;;;0.65;100.00;98189.58;107641;1266;69939;-68
2022/12/03 04:46:02;;;;;;;72.90;31.80;;;;;;;0.69;100.00;98192.92;107626;1263;69296;-68
2022/12/03 04:48:32;;;;;;;60.90;29.10;;;;;;;0.70;100.00;98197.20;107627;1266;58963;-68
2022/12/03 04:51:01;;;;;;;51.30;26.60;;;;;;;0.72;100.00;98198.02;107816;1262;58921;-69
2022/12/03 04:53:32;;;;;;;60.00;29.20;;;;;;;0.75;100.00;98200.52;107622;1266;71075;-68
2022/12/03 04:56:04;;;;;;;47.20;24.20;;;;;;;0.79;100.00;98208.00;107656;1262;68411;-68
2022/12/03 04:58:33;;;;;;;44.10;22.70;;;;;;;0.82;100.00;98207.06;107657;1262;69234;-68
2022/12/03 05:01:03;;;;;;;40.90;20.30;;;;;;;0.85;100.00;98205.98;107667;1266;59344;-68
2022/12/03 05:03:32;;;;;;;37.60;19.50;;;;;;;0.88;100.00;98202.83;107791;1266;58972;-68
2022/12/03 05:06:01;;;;;;;28.50;15.00;;;;;;;0.92;100.00;98206.00;107827;1266;71074;-68
2022/12/03 05:08:30;;;;;;;47.20;21.20;;;;;;;0.95;100.00;98202.15;107705;1266;69802;-68
2022/12/03 05:10:59;;;;;;;44.40;20.50;;;;;;;0.95;100.00;98201.63;107650;1262;69318;-68
2022/12/03 05:13:28;;;;;;;43.60;20.70;;;;;;;0.96;100.00;98203.85;107675;1262;58935;-68
2022/12/03 05:15:57;;;;;;;41.90;20.50;;;;;;;0.97;100.00;98204.86;107665;1266;58938;-69
2022/12/03 05:18:26;;;;;;;42.90;20.60;;;;;;;0.98;100.00;98206.04;107699;1262;71195;-68
2022/12/03 05:20:55;;;;;;;39.50;20.90;;;;;;;1.02;100.00;98206.98;107691;1266;69080;-69
2022/12/03 05:23:24;;;;;;;54.70;22.00;;;;;;;1.04;100.00;98209.70;107813;1266;69795;-69
2022/12/03 05:25:53;;;;;;;39.40;21.10;;;;;;;1.02;100.00;98209.04;107853;1262;58898;-69
2022/12/03 05:28:23;;;;;;;44.40;22.10;;;;;;;1.03;100.00;98210.93;107715;1266;58912;-69
2022/12/03 05:30:53;;;;;;;37.80;20.30;;;;;;;1.05;100.00;98208.48;107683;1268;69889;-69
2022/12/03 05:33:22;;;;;;;44.30;21.50;;;;;;;1.07;100.00;98212.73;107789;1266;68473;-69
2022/12/03 05:35:52;;;;;;;40.60;21.40;;;;;;;1.09;100.00;98216.29;107929;1262;68378;-69
2022/12/03 05:38:21;;;;;;;52.30;19.90;;;;;;;1.11;100.00;98215.55;107730;1266;58970;-70
2022/12/03 05:40:50;;;;;;;29.40;15.40;;;;;;;1.10;100.00;98219.16;107927;1262;58918;-69
2022/12/03 05:43:19;;;;;;;48.00;19.00;;;;;;;1.10;100.00;98219.33;107944;1266;71309;-69
2022/12/03 05:45:49;;;;;;;38.40;19.80;;;;;;;1.11;100.00;98218.81;107671;1264;69686;-69
2022/12/03 05:48:18;;;;;;;40.00;19.10;;;;;;;1.13;100.00;98214.30;107774;1269;68202;-69
2022/12/03 05:50:48;;;;;;;42.10;20.20;;;;;;;1.15;100.00;98215.12;107679;1266;58960;-68
2022/12/03 05:53:17;;;;;;;44.30;20.30;;;;;;;1.16;100.00;98216.81;107673;1266;58964;-69
2022/12/03 05:55:46;;;;;;;37.40;18.80;;;;;;;1.17;100.00;98216.80;107687;1266;70063;-69
2022/12/03 05:58:16;;;;;;;41.50;20.40;;;;;;;1.17;100.00;98218.15;107625;1266;70030;-69
2022/12/03 06:00:45;;;;;;;40.60;20.40;;;;;;;1.20;100.00;98222.73;107624;1266;69073;-69
2022/12/03 06:03:14;;;;;;;38.50;19.20;;;;;;;1.23;100.00;98222.67;107712;1266;58970;-69
2022/12/03 06:05:43;;;;;;;45.80;19.90;;;;;;;1.23;100.00;98225.06;107689;1262;58967;-70
2022/12/03 06:08:12;;;;;;;37.50;18.30;;;;;;;1.24;100.00;98224.17;107839;1266;71246;-68
2022/12/03 06:10:42;;;;;;;64.30;21.60;;;;;;;1.24;100.00;98224.17;107761;1266;69353;-68
2022/12/03 06:13:11;;;;;;;32.50;17.30;;;;;;;1.23;100.00;98228.16;107800;1258;68364;-68
2022/12/03 06:15:40;;;;;;;39.50;16.80;;;;;;;1.24;100.00;98228.48;107689;1266;58962;-68
2022/12/03 06:18:11;;;;;;;26.90;14.80;;;;;;;1.25;100.00;98234.83;107932;1263;58924;-69
2022/12/03 06:20:40;;;;;;;41.20;18.70;;;;;;;1.24;100.00;98234.64;107664;1267;71273;-68
2022/12/03 06:23:09;;;;;;;36.60;19.60;;;;;;;1.22;100.00;98233.50;107658;1266;69127;-68
2022/12/03 06:25:39;;;;;;;42.90;20.00;;;;;;;1.22;100.00;98235.58;107679;1266;69733;-68
2022/12/03 06:28:08;;;;;;;65.60;24.20;;;;;;;1.24;100.00;98235.67;107756;1266;58886;-68
2022/12/03 06:30:37;;;;;;;42.90;21.30;;;;;;;1.24;100.00;98236.02;107795;1266;58894;-69
2022/12/03 06:33:06;;;;;;;41.80;21.40;;;;;;;1.26;100.00;98238.73;107611;1262;70465;-69
2022/12/03 06:35:35;;;;;;;47.50;22.70;;;;;;;1.30;100.00;98237.10;107667;1271;69686;-68
2022/12/03 06:38:04;;;;;;;84.90;27.80;;;;;;;1.32;100.00;98238.94;107812;1266;69247;-68
2022/12/03 06:40:33;;;;;;;57.10;27.50;;;;;;;1.32;100.00;98240.30;107666;1263;58962;-68
2022/12/03 06:43:02;;;;;;;40.20;19.50;;;;;;;1.35;100.00;98239.23;107785;1266;58859;-68
2022/12/03 06:45:31;;;;;;;37.10;17.10;;;;;;;1.38;100.00;98242.75;107778;1266;71233;-68
2022/12/03 06:48:00;;;;;;;26.20;14.00;;;;;;;1.38;100.00;98241.88;107936;1266;69786;-68
2022/12/03 06:50:29;;;;;;;40.20;19.70;;;;;;;1.38;100.00;98237.95;107799;1262;68881;-67
2022/12/03 06:52:58;;;;;;;45.20;22.30;;;;;;;1.40;100.00;98242.55;107893;1262;58962;-67
2022/12/03 06:55:27;;;;;;;35.50;18.00;;;;;;;1.41;100.00;98244.06;107769;1266;58904;-68
2022/12/03 06:57:56;;;;;;;30.00;16.00;;;;;;;1.44;100.00;98247.95;107777;1266;70044;-67
2022/12/03 07:00:24;;;;;;;33.90;17.70;;;;;;;1.44;100.00;98250.20;107806;1266;69420;-67
2022/12/03 07:02:53;;;;;;;21.20;12.20;;;;;;;1.46;100.00;98244.63;107679;1266;69288;-67
2022/12/03 07:05:22;;;;;;;33.10;17.60;;;;;;;1.48;100.00;98245.44;107798;1266;58869;-67
2022/12/03 07:07:54;;;;;;;26.10;13.70;;;;;;;1.52;100.00;98249.14;107755;1266;59298;-68
2022/12/03 07:10:23;;;;;;;28.80;14.50;;;;;;;1.55;100.00;98243.39;107715;1267;69810;-67
2022/12/03 07:12:52;;;;;;;33.30;19.80;;;;;;;1.58;100.00;98248.66;107802;1266;68039;-68
2022/12/03 07:15:20;;;;;;;40.30;22.00;;;;;;;1.60;100.00;98246.19;107680;1262;69981;-67
2022/12/03 07:17:49;;;;;;;38.50;21.80;;;;;;;1.62;100.00;98248.55;107682;1266;58982;-68
2022/12/03 07:20:18;;;;;;;42.50;22.00;;;;;;;1.64;100.00;98253.13;107625;1267;58971;-67
2022/12/03 07:22:47;;;;;;;37.10;19.30;;;;;;;1.68;100.00;98251.67;107715;1266;70478;-67
2022/12/03 07:25:16;;;;;;;35.90;21.00;;;;;;;1.71;100.00;98252.80;107681;1266;69635;-67
2022/12/03 07:27:51;;;;;;;42.20;22.10;;;;;;;1.76;100.00;98254.91;107707;1266;68754;-67
2022/12/03 07:30:20;;;;;;;41.90;21.80;;;;;;;1.83;100.00;98254.23;107726;1267;58925;-67
2022/12/03 07:32:49;;;;;;;46.90;25.50;;;;;;;1.86;100.00;98255.39;107805;1266;58921;-67
2022/12/03 07:35:18;;;;;;;39.90;21.00;;;;;;;1.90;100.00;98256.30;107676;1266;70708;-68
2022/12/03 07:37:46;;;;;;;35.50;19.70;;;;;;;1.96;100.00;98255.30;107636;1266;69168;-67
2022/12/03 07:40:16;;;;;;;41.20;23.00;;;;;;;2.02;100.00;98253.23;107798;1266;69265;-68
2022/12/03 07:42:45;;;;;;;44.00;22.50;;;;;;;2.11;100.00;98255.27;107852;1266;58968;-67
2022/12/03 07:45:14;;;;;;;42.40;22.30;;;;;;;2.19;100.00;98259.17;107661;1266;58948;-67
2022/12/03 07:47:42;;;;;;;36.20;21.20;;;;;;;2.22;100.00;98257.04;107823;1266;69822;-67
2022/12/03 07:50:11;;;;;;;32.30;18.30;;;;;;;2.22;100.00;98261.67;107764;1267;69842;-67
2022/12/03 07:52:40;;;;;;;50.60;28.50;;;;;;;2.24;100.00;98260.25;107711;1266;68482;-67
2022/12/03 07:55:10;;;;;;;43.80;25.80;;;;;;;2.24;100.00;98263.02;107752;1267;58892;-67
2022/12/03 07:57:39;;;;;;;45.40;26.60;;;;;;;2.17;100.00;98261.15;107691;1266;58898;-67
2022/12/03 08:00:09;;;;;;;34.00;21.50;;;;;;;2.16;100.00;98261.31;107651;1267;69786;-67
2022/12/03 08:02:38;;;;;;;29.80;17.30;;;;;;;2.19;100.00;98259.36;107697;1266;69533;-67
2022/12/03 08:05:07;;;;;;;32.00;19.30;;;;;;;2.24;100.00;98258.73;107682;1266;69944;-67
2022/12/03 08:07:36;;;;;;;34.20;19.50;;;;;;;2.26;100.00;98259.01;107775;1269;58913;-67
2022/12/03 08:10:06;;;;;;;37.60;23.40;;;;;;;2.32;100.00;98257.98;107723;1267;58915;-67
2022/12/03 08:12:41;;;;;;;30.70;19.00;;;;;;;2.37;100.00;98263.38;107722;1269;70915;-67
2022/12/03 08:15:11;;;;;;;30.10;17.50;;;;;;;2.42;100.00;98266.50;107696;1270;69821;-68
2022/12/03 08:17:41;;;;;;;28.20;16.00;;;;;;;2.46;100.00;98267.07;107658;1265;69614;-68
2022/12/03 08:20:15;;;;;;;37.00;22.20;;;;;;;2.57;100.00;98267.13;107625;1267;59027;-68
2022/12/03 08:22:46;;;;;;;35.70;20.80;;;;;;;2.67;100.00;98265.48;107719;1267;58911;-67
2022/12/03 08:25:24;;;;;;;35.90;21.10;;;;;;;2.76;100.00;98260.94;107825;1267;71186;-68
2022/12/03 08:28:01;;;;;;;32.00;20.40;;;;;;;2.89;100.00;98262.61;107750;1267;68402;-67
2022/12/03 08:30:30;;;;;;;30.80;19.30;;;;;;;3.05;100.00;98264.23;107679;1263;69947;-69
2022/12/03 08:32:58;;;;;;;29.80;19.40;;;;;;;3.15;100.00;98269.62;107701;1267;58918;-68
2022/12/03 08:35:30;;;;;;;33.70;20.80;;;;;;;3.25;100.00;98264.52;107698;1267;58809;-69
2022/12/03 08:38:10;;;;;;;24.80;16.00;;;;;;;3.32;100.00;98265.85;107732;1269;71224;-68
2022/12/03 08:40:42;;;;;;;34.70;22.20;;;;;;;3.30;100.00;98262.46;107756;1267;69818;-68
2022/12/03 08:43:23;;;;;;;28.60;19.30;;;;;;;3.37;100.00;98261.73;107781;1267;70045;-69
2022/12/03 08:45:56;;;;;;;36.80;24.40;;;;;;;3.41;100.00;98260.08;107538;1271;58909;-69
2022/12/03 08:48:32;;;;;;;34.30;21.70;;;;;;;3.50;100.00;98258.05;107658;1263;58966;-69
2022/12/03 08:51:19;;;;;;;36.30;21.70;;;;;;;3.57;100.00;98250.77;107661;1267;70462;-68
2022/12/03 08:53:57;;;;;;;29.10;20.30;;;;;;;3.66;100.00;98252.38;107674;1267;69943;-69
2022/12/03 08:56:35;;;;;;;26.30;16.00;;;;;;;3.71;100.00;98252.08;107657;1268;68257;-68
2022/12/03 08:59:25;;;;;;;26.60;17.20;;;;;;;3.89;100.00;98247.86;107657;1267;58999;-68
2022/12/03 09:01:55;;;;;;;25.40;16.50;;;;;;;4.03;100.00;98251.18;107627;1267;58933;-68
2022/12/03 09:04:44;;;;;;;27.00;18.70;;;;;;;4.06;100.00;98253.13;107645;1267;70553;-68
2022/12/03 09:07:13;;;;;;;24.90;15.20;;;;;;;4.17;100.00;98248.67;107686;1266;69195;-68
2022/12/03 09:09:41;;;;;;;30.90;19.00;;;;;;;4.26;100.00;98244.72;107663;1268;69901;-68
2022/12/03 09:12:10;;;;;;;27.20;17.10;;;;;;;4.39;99.96;98245.83;107650;1267;59359;-68
2022/12/03 09:14:39;;;;;;;30.00;19.00;;;;;;;4.45;99.13;98245.64;107641;1267;58944;-68
2022/12/03 09:17:07;;;;;;;32.50;20.00;;;;;;;4.49;98.34;98244.25;107685;1265;69787;-68
2022/12/03 09:19:36;;;;;;;25.10;18.10;;;;;;;4.50;97.37;98245.44;107742;1267;68519;-68
2022/12/03 09:22:14;;;;;;;24.90;18.30;;;;;;;4.51;97.40;98245.05;107774;1267;69902;-70
2022/12/03 09:24:43;;;;;;;29.20;19.60;;;;;;;4.62;97.73;98246.75;107686;1265;58896;-68
2022/12/03 09:27:11;;;;;;;27.10;18.80;;;;;;;4.69;98.18;98245.48;107725;1269;58887;-68
2022/12/03 09:29:40;;;;;;;25.60;16.90;;;;;;;4.88;99.16;98244.09;107629;1267;71190;-68
2022/12/03 09:32:09;;;;;;;28.20;18.80;;;;;;;5.07;97.09;98245.45;107796;1268;69229;-68
2022/12/03 09:34:46;;;;;;;25.00;16.80;;;;;;;5.24;95.55;98242.73;107775;1267;70017;-69
2022/12/03 09:37:15;;;;;;;22.30;15.40;;;;;;;5.31;94.39;98241.61;107770;1267;58949;-68
2022/12/03 09:39:43;;;;;;;21.60;16.10;;;;;;;5.33;94.53;98240.49;107762;1267;58922;-68
2022/12/03 09:42:14;;;;;;;20.30;15.20;;;;;;;5.40;93.82;98239.55;107661;1264;71072;-69
2022/12/03 09:44:43;;;;;;;20.80;15.00;;;;;;;5.50;92.84;98239.85;107726;1265;68716;-68
2022/12/03 09:47:12;;;;;;;22.20;14.50;;;;;;;5.64;92.75;98242.22;107681;1259;69886;-69
2022/12/03 09:49:42;;;;;;;18.40;13.00;;;;;;;5.62;92.73;98243.33;107661;1264;58966;-68
2022/12/03 09:52:19;;;;;;;19.30;14.30;;;;;;;5.52;90.30;98241.14;107658;1264;58984;-69
2022/12/03 09:54:48;;;;;;;17.30;12.80;;;;;;;5.60;90.78;98242.89;107650;1255;70617;-69
2022/12/03 09:57:18;;;;;;;18.60;13.00;;;;;;;5.67;90.15;98239.17;107663;1269;69171;-69
2022/12/03 09:59:47;;;;;;;16.70;12.00;;;;;;;5.78;91.03;98234.57;107648;1270;69902;-68
2022/12/03 10:02:28;;;;;;;15.30;11.70;;;;;;;5.95;92.78;98234.41;107633;1271;58966;-69
2022/12/03 10:04:57;;;;;;;20.70;14.10;;;;;;;6.04;91.13;98233.38;107248;1267;555729;-69
2022/12/03 10:07:26;;;;;;;18.80;14.40;;;;;;;5.97;88.62;98232.78;107692;1267;71180;-67
2022/12/03 10:09:55;;;;;;;17.30;13.70;;;;;;;5.94;88.19;98232.91;107672;1268;69987;-67
2022/12/03 10:12:25;;;;;;;19.60;13.90;;;;;;;6.03;88.07;98223.86;107655;1267;69304;-67
2022/12/03 10:14:54;;;;;;;22.00;13.80;;;;;;;6.19;89.26;98224.95;107724;1267;58918;-67
2022/12/03 10:17:23;;;;;;;19.60;14.90;;;;;;;6.35;89.49;98225.30;107697;1267;58978;-67
2022/12/03 10:19:52;;;;;;;19.50;14.70;;;;;;;6.44;90.06;98222.70;107756;1260;70438;-67
2022/12/03 10:22:21;;;;;;;20.50;15.10;;;;;;;6.61;88.62;98223.84;107643;1269;69019;-67
2022/12/03 10:25:09;;;;;;;14.90;11.20;;;;;;;6.82;90.08;98222.02;107647;1271;69910;-67
2022/12/03 10:27:39;;;;;;;18.70;13.50;;;;;;;7.02;89.62;98221.48;107653;1270;58918;-67
2022/12/03 10:30:18;;;;;;;18.60;14.00;;;;;;;7.05;83.59;98221.66;107689;1269;58889;-67
2022/12/03 10:32:49;;;;;;;15.50;11.70;;;;;;;7.25;82.53;98212.96;107505;1270;70564;-67
2022/12/03 10:35:23;;;;;;;18.60;13.20;;;;;;;7.70;82.38;98209.42;107686;1270;69446;-67
2022/12/03 10:38:01;;;;;;;20.00;14.40;;;;;;;8.35;79.39;98204.63;107660;1269;69092;-67
2022/12/03 10:40:36;;;;;;;16.90;13.30;;;;;;;8.98;77.89;98204.17;107653;1270;58992;-67
2022/12/03 10:43:14;;;;;;;16.40;12.80;;;;;;;9.55;75.44;98201.73;107698;1269;58916;-67
2022/12/03 10:45:47;;;;;;;15.40;12.30;;;;;;;10.02;73.20;98199.91;107645;1269;69840;-67
2022/12/03 10:48:24;;;;;;;13.70;10.80;;;;;;;10.23;69.64;98199.42;107730;1270;68066;-67
2022/12/03 10:51:00;;;;;;;15.60;12.10;;;;;;;10.35;69.87;98194.68;107695;1270;68489;-67
2022/12/03 10:53:32;;;;;;;22.10;15.90;;;;;;;10.25;70.83;98195.09;107762;1269;58932;-68
2022/12/03 10:56:04;;;;;;;18.90;14.60;;;;;;;10.50;71.24;98193.45;107792;1270;58923;-68
2022/12/03 10:58:35;;;;;;;21.90;15.80;;;;;;;10.66;73.51;98192.12;107720;1270;71185;-68
2022/12/03 11:01:22;;;;;;;21.40;15.70;;;;;;;10.56;74.09;98191.35;107714;1270;69712;-68
2022/12/03 11:03:52;;;;;;;20.90;15.40;;;;;;;10.24;71.80;98185.56;107772;1269;69894;-68
2022/12/03 11:06:22;;;;;;;24.80;16.00;;;;;;;10.10;73.41;98184.62;107651;1268;58864;-68
2022/12/03 11:08:53;;;;;;;21.10;15.70;;;;;;;9.94;73.00;98184.50;107679;1269;58900;-70
2022/12/03 11:11:30;;;;;;;20.80;14.90;;;;;;;9.75;72.87;98184.05;107732;1268;69891;-70
2022/12/03 11:14:03;;;;;;;24.20;16.60;;;;;;;9.44;72.81;98183.35;107767;1269;69870;-69
2022/12/03 11:16:40;;;;;;;21.10;14.60;;;;;;;9.23;74.08;98185.38;107749;1270;69305;-68
2022/12/03 11:19:12;;;;;;;22.30;15.00;;;;;;;9.05;75.46;98186.36;107704;1269;58951;-68
2022/12/03 11:22:06;;;;;;;23.80;17.00;;;;;;;8.82;75.63;98186.08;107711;1269;58926;-68
2022/12/03 11:24:36;;;;;;;25.30;18.00;;;;;;;8.44;75.83;98183.84;107726;1269;70558;-69
2022/12/03 11:27:10;;;;;;;21.90;14.40;;;;;;;8.21;76.91;98180.70;107734;1270;69173;-68
2022/12/03 11:29:50;;;;;;;18.50;13.70;;;;;;;7.91;77.50;98183.05;107757;1264;69761;-68
2022/12/03 11:32:37;;;;;;;22.30;15.20;;;;;;;7.78;78.69;98182.17;107817;1269;58934;-68
2022/12/03 11:35:27;;;;;;;20.90;14.60;;;;;;;7.79;78.92;98178.47;107827;1265;58919;-68
2022/12/03 11:38:34;;;;;;;18.30;12.90;;;;;;;7.76;79.14;98179.48;107721;1269;70943;-67
2022/12/03 11:41:29;;;;;;;20.50;14.70;;;;;;;7.96;79.30;98175.56;107756;1268;69256;-67
2022/12/03 11:44:29;;;;;;;24.10;17.00;;;;;;;8.41;78.16;98180.05;107691;1273;69517;-67
2022/12/03 11:47:06;;;;;;;21.80;15.50;;;;;;;8.79;76.85;98177.55;107673;1266;58999;-68
2022/12/03 11:49:38;;;;;;;20.60;15.40;;;;;;;9.32;74.45;98171.30;107702;1268;58924;-69